• Join FlightAware (Why Join?)
  • Login
  • US Flag 
09:59PM EDT


 

Airport Tracker/Info


-or-


 

Live Flight TrackerFlight Track Log ✈ N170HL ✈ 08-Nov-2013 ✈ KACY - KRDU

Flight Track Log - Related Links

Times and Time Zones

All times are in EST time to prevent confusion due to time zone crossing. See the N170HL flight status page for this flight to view local times or setup timezone preferences in your user account.

Time Position Orientation Groundspeed Altitude Reporting Facility
EST Latitude Longitude Course Direction KTS MPH feet Rate Location/Type
12:12PM 39.4808 -74.6828 223° Southwest 204 235 5,300  Level Washington Center
12:13PM 39.4272 -74.7481 223° Southwest 204 235 8,500 2,340 Climbing Washington Center
12:14PM 39.3650 -74.8239 223° Southwest 257 296 10,000 720 Climbing Washington Center
12:15PM 39.2928 -74.9131 224° Southwest 319 367 10,000  Level Washington Center
12:16PM 39.2267 -75.0183 231° Southwest 354 407 10,100 1,080 Climbing Washington Center
12:17PM 39.1728 -75.1258 237° Southwest 364 419 12,300 2,340 Climbing Washington Center
12:18PM 39.0878 -75.2039 215° Southwest 370 426 14,800 2,100 Climbing Washington Center
12:19PM 38.9858 -75.2525 200° South 376 433 16,500 1,380 Climbing Washington Center
12:20PM 38.8753 -75.2983 198° South 396 456 17,700 1,320 Climbing Washington Center
12:21PM 38.7628 -75.3442 198° South 417 480 19,200 1,680 Climbing Washington Center
12:22PM 38.6503 -75.3869 197° South 422 486 21,100 1,380 Climbing Washington Center
12:23PM 38.5336 -75.4350 198° South 428 493 22,000 420 Climbing Washington Center
12:24PM 38.4169 -75.4831 198° South 435 501 22,000  Level Washington Center
12:25PM 38.2983 -75.5308 198° South 441 507 22,000  Level Washington Center
12:26PM 38.1897 -75.5917 204° Southwest 441 507 22,000  Level Washington Center
12:27PM 38.1000 -75.6761 217° Southwest 416 479 22,000  Level Washington Center
12:28PM 38.0042 -75.7764 220° Southwest 416 479 22,000  Level Washington Center
12:29PM 37.9206 -75.8525 216° Southwest 416 479 22,000  Level Washington Center
12:29PM 37.8828 -75.8969 223° Southwest 413 475 22,000  Level Washington Center
12:30PM 37.8306 -75.9494 218° Southwest 419 482 22,000  Level Washington Center
12:30PM 37.8306 -75.9494 218° Southwest 423 487 22,000  Level Washington Center
12:31PM 37.7303 -76.0433 217° Southwest 420 483 22,000  Level Washington Center
12:31PM 37.7261 -76.0514 237° Southwest 423 487 22,000  Level Washington Center
12:32PM 37.6358 -76.1347 216° Southwest 420 483 22,000  Level Washington Center
12:32PM 37.6381 -76.1347 360° North 423 487 22,000  Level Washington Center
12:33PM 37.5500 -76.2125 215° Southwest 423 487 22,000  Level Washington Center
12:34PM 37.4578 -76.3033 218° Southwest 442 509 22,000  Level Washington Center
12:35PM 37.3633 -76.3967 218° Southwest 442 509 22,000  Level Washington Center
12:36PM 37.2689 -76.4844 216° Southwest 442 509 22,000  Level Washington Center
12:37PM 37.1950 -76.5906 229° Southwest 423 487 22,000  Level Washington Center
12:38PM 37.1231 -76.7014 231° Southwest 418 481 22,000  Level Washington Center
12:39PM 37.0533 -76.8125 232° Southwest 413 475 22,000  Level Washington Center
12:40PM 36.9853 -76.9231 232° Southwest 413 475 22,000  Level Washington Center
12:41PM 36.9131 -77.0336 231° Southwest 413 475 22,000  Level Washington Center
12:42PM 36.8408 -77.1464 231° Southwest 418 481 22,000  Level Washington Center
12:43PM 36.7706 -77.2539 231° Southwest 418 481 22,000  Level Washington Center
12:44PM 36.6978 -77.3664 231° Southwest 418 481 22,000 -240 Level Washington Center
12:45PM 36.6275 -77.4733 231° Southwest 413 475 21,600 -1,260 Descending Washington Center
12:46PM 36.5675 -77.5678 232° Southwest 389 448 19,600 -1,920 Descending Washington Center
12:47PM 36.5097 -77.6567 231° Southwest 361 415 17,900 -1,800 Descending Washington Center
12:48PM 36.4497 -77.7456 230° Southwest 347 399 16,000 -2,040 Descending Washington Center
12:49PM 36.3872 -77.8469 233° Southwest 342 394 13,800 -1,920 Descending Washington Center
12:50PM 36.3294 -77.9306 229° Southwest 342 394 12,200 -1,560 Descending Washington Center
12:51PM 36.2822 -77.9986 229° Southwest 323 372 11,100 -1,380 Descending Washington Center
12:51PM 36.2714 -78.0189 236° Southwest 342 394 10,900 -1,020 Descending Washington Center
12:52PM 36.2303 -78.0872 233° Southwest 317 365 10,100 -1,020 Descending Washington Center
12:52PM 36.2217 -78.1022 235° Southwest 329 379 9,900 -1,560 Descending Washington Center
12:52PM 36.1953 -78.1606 241° Southwest 259 298 8,700 -1,740 Descending Washington Center
12:53PM 36.1864 -78.1808 241° Southwest 287 330 8,200 -1,620 Descending Washington Center
12:54PM 36.1581 -78.2417 240° Southwest 265 305 7,000 -1,620 Descending Washington Center
12:54PM 36.1494 -78.2594 239° Southwest 276 318 6,600 -1,020 Descending Washington Center
12:55PM 36.1208 -78.3203 240° Southwest 268 308 6,000 -600 Descending Washington Center
12:55PM 36.1100 -78.3403 236° Southwest 276 318 6,000 -840 Level Washington Center
12:56PM 36.0794 -78.4011 238° Southwest 265 305 5,200 -1,140 Descending Washington Center
12:56PM 36.0728 -78.4161 241° Southwest 269 310 4,900 -1,140 Descending Washington Center
12:57PM 36.0442 -78.4794 241° Southwest 261 300 4,100 -900 Descending Washington Center
12:57PM 36.0375 -78.4944 241° Southwest 269 310 4,000 -1,260 Descending Washington Center
12:58PM 36.0000 -78.5703 239° Southwest 264 304 2,600 -1,140 Descending Washington Center
12:59PM 35.9736 -78.6283 241° Southwest 249 287 2,000 -600 Descending Washington Center
12:59PM 35.9669 -78.6408 237° Southwest 259 298 2,000 -120 Level Washington Center
01:00PM 35.9383 -78.6989 239° Southwest 235 270 1,900 -120 Descending Washington Center
01:00PM 35.9319 -78.7089 232° Southwest 247 284 1,900 -420 Level Washington Center
01:01PM 35.9103 -78.7414 231° Southwest 148 170 1,500 -660 Descending Washington Center
01:02PM 35.8822 -78.7761 225° Southwest 117 135 700 -840 Descending Washington Center
01:04PM 35.8667 -78.7833 North  Level FlightAware Approximate